CheckWX is a tool to help pilots better visualize weather data.  It is not intended as a substitute for an official pre-flight weather briefing.

13:17:33 UTC

KLXT METAR
Lee's Summit Municipal Airport
Lee's Summit, Missouri, USA
Current

25 mins ago

KLXT 191253Z AUTO 17006KT 10SM CLR 24/19 A3002 RMK AO2 SLP153 T02390189
Observed
Sep-19 @ 12:53 UTC
Wind
  • 170° at 6 KTS
Visibility
10 SM
Flight Rules
VFR
Cloud Levels
  • Clear skies
Temperature
24°C / 75°F
Dewpoint
19°C / 66°F
Humidity
74%
Altimeter
30.02" Hg
Pressure
1016.62 hPa
Previous

1 hour ago

KLXT 191153Z AUTO 19005KT 10SM CLR 23/18 A3000 RMK AO2 SLP148 T02330183 10261 20233 53007
Observed
Sep-19 @ 11:53 UTC
Wind
  • 190° at 5 KTS
Visibility
10 SM
Flight Rules
VFR
Cloud Levels
  • Clear skies
Temperature
23°C / 73°F
Dewpoint
18°C / 64°F
Humidity
74%
Altimeter
30" Hg
Pressure
1015.92 hPa
Previous

2 hours ago

KLXT 191053Z AUTO 18006KT 10SM CLR 23/19 A2999 RMK AO2 SLP143 T02330189
Observed
Sep-19 @ 10:53 UTC
Wind
  • 180° at 6 KTS
Visibility
10 SM
Flight Rules
VFR
Cloud Levels
  • Clear skies
Temperature
23°C / 73°F
Dewpoint
19°C / 66°F
Humidity
78%
Altimeter
29.99" Hg
Pressure
1015.62 hPa